Terminal Aerodrome Forecast
Issued by NWS

Home | Current Version | Previous Version | Text Only | Print | Product List | Glossary On
Versions: 1 2 3 4 5 6 7 8 9 10 11 12 13 14 15 16 17 18
000
FTUS41 KGYX 012300
TAFPSM
TAF
KPSM 012320Z 0200/0224 19009KT P6SM SCT040 BKN090
      TEMPO 0206/0210 2SM BR SCT020 BKN040
     FM021500 16006KT P6SM -SHRA SCT020 BKN050=

USA.gov is the U.S. government's official web portal to all federal, state and local government web resources and services.